Trout Creek, Utah
Current Conditions -  °F | °C
As of 5:55 PM on Friday 24 Oct 2014 (Local Time) from KENV Reporting Station
Clear Clear  
Wind Chill: 18°   Ceiling: Unl
Heat Index: 18°   Visibility: 10mi
Dew Point:   Wind: 0mph
Humidity: 30%   Direction: NA
Pressure: 30.08"   Gusts: NA
Location:  40.2503°N, 113.457°W
Report Text: KENV 242355Z AUTO 00000KT 10SM CLR 18/00 A3008 RMK AO1 10180 20140 401800040 57017
Loading
Personal Weather Stations






























Interactive Weather Map
Tropical Storm Tracking
New forecast layout! Learn more

10-Day Weather Forecast

Advertisements
Track Severe Weather on mobile